Time;durP1;ratioP1;P1;durP2;ratioP2;P2;SDS_P1;SDS_P2;PMS_P1;PMS_P2;Temp;Humidity;BMP_temperature;BMP_pressure;BME280_temperature;BME280_humidity;BME280_pressure;Samples;Min_cycle;Max_cycle;Signal;HPM_P1;HPM_P2
2023/01/18 08:30:06;;;;;;;170.82;106.32;;;;;;;;;;532030;27;20124;-70
2023/01/18 10:21:27;;;;;;;20.02;16.45;;;;;;;;;;529814;27;20177;-64
2023/01/18 10:21:51;;;;;;;20.73;17.00;;;;;;;;;;528643;27;1410;-67
2023/01/18 10:22:19;;;;;;;23.08;17.33;;;;;;;;;;526093;28;1718;-68
2023/01/18 10:22:44;;;;;;;19.95;16.27;;;;;;;;;;525273;28;1384;-66
2023/01/18 10:23:18;;;;;;;20.50;16.52;;;;;;;;;;525188;28;1800;-67
2023/01/18 10:23:40;;;;;;;18.25;15.77;;;;;;;;;;524080;28;1213;-68
2023/01/18 10:24:34;;;;;;;19.80;15.75;;;;;;;;;;525305;28;1269;-69
2023/01/18 10:25:01;;;;;;;15.80;13.15;;;;;;;;;;521478;28;1276;-68
2023/01/18 10:25:38;;;;;;;15.63;13.73;;;;;;;;;;526755;28;1489;-68
2023/01/18 10:26:02;;;;;;;23.85;19.83;;;;;;;;;;525476;27;1393;-70
2023/01/18 10:26:27;;;;;;;21.55;17.55;;;;;;;;;;522878;28;1341;-68
2023/01/18 10:26:46;;;;;;;18.73;15.38;;;;;;;;;;523390;27;947;-69
2023/01/18 10:27:34;;;;;;;16.98;15.00;;;;;;;;;;524641;28;1390;-69
2023/01/18 10:28:09;;;;;;;18.08;15.65;;;;;;;;;;526407;28;1121;-68
2023/01/18 10:28:38;;;;;;;17.90;15.40;;;;;;;;;;526226;27;1152;-68
2023/01/18 10:29:02;;;;;;;18.80;15.68;;;;;;;;;;524150;28;1004;-69
2023/01/18 10:29:25;;;;;;;16.92;15.13;;;;;;;;;;523961;28;1284;-69
2023/01/18 10:29:46;;;;;;;14.60;13.00;;;;;;;;;;526111;28;1078;-69
2023/01/18 10:30:24;;;;;;;14.65;13.13;;;;;;;;;;525777;28;1086;-69
2023/01/18 10:31:08;;;;;;;16.60;13.75;;;;;;;;;;526900;28;1086;-68
2023/01/18 10:32:11;;;;;;;16.92;15.05;;;;;;;;;;525875;28;1221;-68
2023/01/18 10:32:29;;;;;;;19.58;16.33;;;;;;;;;;519140;28;1106;-69
2023/01/18 10:32:52;;;;;;;17.85;15.15;;;;;;;;;;519646;27;1662;-68
2023/01/18 10:33:29;;;;;;;16.67;14.07;;;;;;;;;;527525;27;1038;-70
2023/01/18 10:33:47;;;;;;;15.85;13.63;;;;;;;;;;526659;27;1094;-68
2023/01/18 10:34:17;;;;;;;14.38;12.65;;;;;;;;;;523572;28;1098;-69
2023/01/18 10:34:35;;;;;;;13.25;11.82;;;;;;;;;;526125;27;1418;-69
2023/01/18 10:34:51;;;;;;;15.43;12.90;;;;;;;;;;528532;27;1073;-69
2023/01/18 10:35:16;;;;;;;16.77;13.65;;;;;;;;;;529507;27;1160;-68
2023/01/18 10:35:35;;;;;;;14.63;12.88;;;;;;;;;;525301;27;1254;-69
2023/01/18 10:35:55;;;;;;;16.35;14.27;;;;;;;;;;526329;27;1073;-68
2023/01/18 10:36:16;;;;;;;15.52;13.55;;;;;;;;;;529748;27;998;-68
2023/01/18 10:36:40;;;;;;;16.65;14.00;;;;;;;;;;528098;27;1176;-69
2023/01/18 10:37:14;;;;;;;15.30;13.70;;;;;;;;;;525997;27;1005;-68
2023/01/18 10:37:39;;;;;;;14.05;12.55;;;;;;;;;;530890;27;1010;-68
2023/01/18 10:37:59;;;;;;;13.63;12.23;;;;;;;;;;529994;27;1096;-68
2023/01/18 10:38:24;;;;;;;14.55;12.98;;;;;;;;;;529305;27;2092;-69
2023/01/18 10:38:40;;;;;;;13.75;12.35;;;;;;;;;;527544;27;1308;-69
2023/01/18 10:38:55;;;;;;;13.90;12.23;;;;;;;;;;526952;27;1136;-70
2023/01/18 10:39:33;;;;;;;15.50;12.63;;;;;;;;;;527484;27;938;-68
2023/01/18 10:39:56;;;;;;;15.77;13.57;;;;;;;;;;525939;27;2112;-69
2023/01/18 10:40:14;;;;;;;16.45;14.07;;;;;;;;;;528630;27;1509;-69
2023/01/18 10:40:29;;;;;;;15.70;13.63;;;;;;;;;;529806;27;1081;-68
2023/01/18 10:40:50;;;;;;;15.63;13.70;;;;;;;;;;525983;28;1329;-69
2023/01/18 10:41:16;;;;;;;14.73;13.15;;;;;;;;;;527067;28;1200;-70
2023/01/18 10:41:35;;;;;;;13.18;11.80;;;;;;;;;;524782;28;1558;-69
2023/01/18 10:41:51;;;;;;;13.40;12.00;;;;;;;;;;524736;28;1630;-68
2023/01/18 10:42:22;;;;;;;14.10;12.60;;;;;;;;;;521576;28;1343;-68
2023/01/18 10:42:49;;;;;;;14.70;13.10;;;;;;;;;;523686;28;1101;-68
2023/01/18 10:43:11;;;;;;;15.07;13.25;;;;;;;;;;521971;28;1091;-68
2023/01/18 10:43:30;;;;;;;15.02;13.40;;;;;;;;;;525607;28;1110;-68
2023/01/18 10:43:45;;;;;;;15.25;13.65;;;;;;;;;;523918;28;1333;-69
2023/01/18 10:44:01;;;;;;;15.50;13.25;;;;;;;;;;524956;28;1231;-69
2023/01/18 10:44:16;;;;;;;15.07;12.63;;;;;;;;;;523313;28;1320;-69
2023/01/18 10:44:32;;;;;;;16.00;13.30;;;;;;;;;;523792;28;1156;-69
2023/01/18 10:44:47;;;;;;;18.30;14.52;;;;;;;;;;522656;28;1425;-69
2023/01/18 10:45:11;;;;;;;17.65;14.75;;;;;;;;;;523336;28;1373;-69
2023/01/18 10:45:31;;;;;;;17.80;15.35;;;;;;;;;;522189;28;1554;-70
2023/01/18 10:45:47;;;;;;;18.77;15.18;;;;;;;;;;525350;28;1019;-69
2023/01/18 10:46:11;;;;;;;19.67;15.07;;;;;;;;;;524788;27;1199;-68
2023/01/18 10:46:27;;;;;;;17.80;15.07;;;;;;;;;;527753;27;1102;-68
2023/01/18 10:46:44;;;;;;;18.08;15.60;;;;;;;;;;526298;27;1049;-68
2023/01/18 10:47:00;;;;;;;18.20;15.77;;;;;;;;;;525441;28;1218;-70
2023/01/18 10:47:17;;;;;;;18.27;15.93;;;;;;;;;;524888;27;1315;-69
2023/01/18 10:47:33;;;;;;;19.23;15.82;;;;;;;;;;526993;27;1082;-69
2023/01/18 10:47:49;;;;;;;18.57;15.37;;;;;;;;;;525568;28;1292;-68
2023/01/18 10:48:32;;;;;;;17.85;15.05;;;;;;;;;;527058;28;1108;-69
2023/01/18 10:48:50;;;;;;;19.25;15.52;;;;;;;;;;524929;28;939;-69
2023/01/18 10:49:07;;;;;;;20.90;16.20;;;;;;;;;;526218;28;1238;-69
2023/01/18 10:49:32;;;;;;;18.98;15.93;;;;;;;;;;523470;28;1290;-69
2023/01/18 10:49:49;;;;;;;17.65;15.70;;;;;;;;;;524624;28;1417;-69
2023/01/18 10:50:13;;;;;;;18.15;15.98;;;;;;;;;;522932;28;1555;-69
2023/01/18 10:50:34;;;;;;;19.13;16.75;;;;;;;;;;522752;28;1528;-69
2023/01/18 10:50:52;;;;;;;18.45;16.45;;;;;;;;;;523028;28;1780;-69
2023/01/18 10:51:21;;;;;;;20.80;16.60;;;;;;;;;;524491;28;1011;-69
2023/01/18 10:51:37;;;;;;;19.08;16.52;;;;;;;;;;524549;28;1118;-69
2023/01/18 10:51:52;;;;;;;19.75;16.88;;;;;;;;;;527571;27;1013;-69
2023/01/18 10:52:30;;;;;;;19.87;16.60;;;;;;;;;;530093;27;1160;-69
2023/01/18 10:52:45;;;;;;;20.83;16.67;;;;;;;;;;527139;28;1273;-69
2023/01/18 10:53:19;;;;;;;19.27;16.63;;;;;;;;;;526099;28;1294;-69
2023/01/18 10:53:36;;;;;;;19.17;16.83;;;;;;;;;;526688;27;1367;-69
2023/01/18 10:53:52;;;;;;;17.92;16.02;;;;;;;;;;526008;27;967;-69
2023/01/18 10:54:25;;;;;;;17.60;15.50;;;;;;;;;;526732;27;1173;-69
2023/01/18 10:54:48;;;;;;;20.88;16.75;;;;;;;;;;526185;27;1118;-68
2023/01/18 10:55:06;;;;;;;71.90;49.25;;;;;;;;;;526041;27;1551;-69
2023/01/18 10:55:21;;;;;;;38.70;28.15;;;;;;;;;;525493;28;1094;-69
2023/01/18 10:55:37;;;;;;;22.17;17.80;;;;;;;;;;526102;28;1165;-68
2023/01/18 10:55:55;;;;;;;17.98;15.43;;;;;;;;;;525891;28;1214;-68
2023/01/18 10:56:20;;;;;;;18.48;14.70;;;;;;;;;;525559;28;1102;-68
2023/01/18 10:56:35;;;;;;;17.27;14.45;;;;;;;;;;526318;28;1126;-68
2023/01/18 10:57:02;;;;;;;16.92;14.38;;;;;;;;;;526182;28;991;-69
2023/01/18 10:57:25;;;;;;;16.77;14.93;;;;;;;;;;525901;28;1514;-69
2023/01/18 10:57:48;;;;;;;16.13;14.43;;;;;;;;;;527002;27;1156;-68
2023/01/18 10:58:04;;;;;;;14.48;12.98;;;;;;;;;;528968;27;1207;-68
2023/01/18 10:58:29;;;;;;;15.00;13.40;;;;;;;;;;529563;27;1030;-68
2023/01/18 10:58:56;;;;;;;16.42;14.43;;;;;;;;;;529485;27;1133;-69
2023/01/18 10:59:29;;;;;;;19.25;15.52;;;;;;;;;;529253;27;1217;-69
2023/01/18 10:59:44;;;;;;;21.00;16.23;;;;;;;;;;529299;27;1077;-69
2023/01/18 11:00:00;;;;;;;19.73;16.10;;;;;;;;;;528875;27;1160;-69
2023/01/18 11:00:29;;;;;;;18.77;15.90;;;;;;;;;;525919;27;1596;-69
2023/01/18 11:00:52;;;;;;;17.67;15.00;;;;;;;;;;527145;27;1108;-69
2023/01/18 11:01:15;;;;;;;19.05;15.70;;;;;;;;;;523059;28;1910;-70
2023/01/18 11:01:35;;;;;;;18.45;15.88;;;;;;;;;;524879;28;1153;-69
2023/01/18 11:01:53;;;;;;;17.02;15.23;;;;;;;;;;525839;28;1066;-69
2023/01/18 11:02:33;;;;;;;17.52;15.65;;;;;;;;;;526781;27;1340;-70
2023/01/18 11:02:50;;;;;;;19.42;16.40;;;;;;;;;;526502;28;1180;-69
2023/01/18 11:03:13;;;;;;;19.35;16.48;;;;;;;;;;525385;28;1263;-69
2023/01/18 11:03:34;;;;;;;18.80;15.95;;;;;;;;;;525211;28;1611;-69
2023/01/18 11:04:06;;;;;;;17.75;14.95;;;;;;;;;;524838;28;1402;-68
2023/01/18 11:04:27;;;;;;;18.35;14.98;;;;;;;;;;521839;28;1464;-68
2023/01/18 11:04:42;;;;;;;18.25;16.10;;;;;;;;;;521208;28;1404;-69
2023/01/18 11:05:23;;;;;;;18.83;16.48;;;;;;;;;;522104;28;1218;-69
2023/01/18 11:05:44;;;;;;;19.27;17.20;;;;;;;;;;522808;28;1023;-69
2023/01/18 11:06:03;;;;;;;17.90;16.00;;;;;;;;;;521690;28;1544;-69
2023/01/18 11:06:20;;;;;;;17.15;15.23;;;;;;;;;;523328;28;967;-68
2023/01/18 11:06:54;;;;;;;18.20;15.23;;;;;;;;;;525702;28;1019;-68
2023/01/18 11:07:10;;;;;;;18.00;14.68;;;;;;;;;;527116;28;1313;-69
2023/01/18 11:07:26;;;;;;;17.85;14.52;;;;;;;;;;524767;28;1259;-69
2023/01/18 11:07:42;;;;;;;17.35;15.00;;;;;;;;;;522277;28;1545;-69
2023/01/18 11:08:33;;;;;;;17.60;15.10;;;;;;;;;;524342;28;1233;-69
2023/01/18 11:08:49;;;;;;;16.70;14.88;;;;;;;;;;524470;28;966;-70
2023/01/18 11:09:04;;;;;;;16.00;13.90;;;;;;;;;;524081;28;1482;-69
2023/01/18 11:09:38;;;;;;;15.00;13.50;;;;;;;;;;525748;28;1318;-69
2023/01/18 11:10:00;;;;;;;15.35;13.75;;;;;;;;;;526308;28;1152;-70
2023/01/18 11:10:25;;;;;;;18.23;15.60;;;;;;;;;;527964;28;1370;-69
2023/01/18 11:10:41;;;;;;;18.67;15.98;;;;;;;;;;525714;28;1470;-70
2023/01/18 11:11:14;;;;;;;17.97;15.50;;;;;;;;;;526733;27;1030;-69
2023/01/18 11:12:33;;;;;;;14.88;13.27;;;;;;;;;;530981;27;1180;-69
2023/01/18 11:12:51;;;;;;;14.57;13.07;;;;;;;;;;530743;27;1058;-69
2023/01/18 11:13:24;;;;;;;14.70;13.10;;;;;;;;;;528932;27;1486;-69
2023/01/18 11:13:45;;;;;;;13.40;12.00;;;;;;;;;;526465;27;1500;-69
2023/01/18 11:14:00;;;;;;;15.45;12.90;;;;;;;;;;527224;27;931;-69
2023/01/18 11:14:41;;;;;;;14.37;12.57;;;;;;;;;;526978;27;1070;-69
2023/01/18 11:15:04;;;;;;;13.90;12.50;;;;;;;;;;522216;27;1273;-69
2023/01/18 11:15:24;;;;;;;15.85;13.25;;;;;;;;;;527967;27;2148;-69
2023/01/18 11:15:40;;;;;;;18.02;14.88;;;;;;;;;;529125;27;1488;-69
2023/01/18 11:16:24;;;;;;;18.50;15.37;;;;;;;;;;529480;27;1399;-69
2023/01/18 11:16:59;;;;;;;18.90;16.90;;;;;;;;;;523898;28;1262;-69
2023/01/18 11:17:16;;;;;;;16.85;15.07;;;;;;;;;;524968;28;1393;-70
2023/01/18 11:17:32;;;;;;;16.83;15.02;;;;;;;;;;523907;28;1323;-68
2023/01/18 11:17:54;;;;;;;17.98;15.45;;;;;;;;;;525270;28;929;-69
2023/01/18 11:18:11;;;;;;;15.45;13.77;;;;;;;;;;524390;28;956;-69
2023/01/18 11:18:27;;;;;;;14.20;12.70;;;;;;;;;;522064;28;1498;-69
2023/01/18 11:19:04;;;;;;;14.68;13.07;;;;;;;;;;520958;28;1578;-69
2023/01/18 11:19:20;;;;;;;14.18;12.68;;;;;;;;;;524498;28;1174;-69
2023/01/18 11:19:38;;;;;;;14.50;12.90;;;;;;;;;;526463;28;1215;-69
2023/01/18 11:20:14;;;;;;;17.98;14.02;;;;;;;;;;527518;28;1238;-69
2023/01/18 11:20:49;;;;;;;15.68;13.50;;;;;;;;;;528689;27;979;-69
2023/01/18 11:21:09;;;;;;;13.90;12.40;;;;;;;;;;531009;27;1014;-70
2023/01/18 11:21:30;;;;;;;14.48;12.68;;;;;;;;;;527669;27;1733;-69
2023/01/18 11:21:48;;;;;;;15.63;13.55;;;;;;;;;;528215;27;965;-69
2023/01/18 11:22:11;;;;;;;14.25;12.75;;;;;;;;;;529277;27;1312;-69
2023/01/18 11:22:31;;;;;;;14.52;12.73;;;;;;;;;;526565;28;1374;-69
2023/01/18 11:23:19;;;;;;;14.55;12.95;;;;;;;;;;525588;28;1337;-69
2023/01/18 11:23:36;;;;;;;14.77;13.00;;;;;;;;;;518599;28;1258;-68
2023/01/18 11:23:52;;;;;;;15.68;13.63;;;;;;;;;;518543;28;1232;-69
2023/01/18 11:24:16;;;;;;;16.00;14.18;;;;;;;;;;520636;28;1378;-69
2023/01/18 11:24:32;;;;;;;16.17;13.40;;;;;;;;;;522861;28;1334;-69
2023/01/18 11:24:51;;;;;;;15.27;12.57;;;;;;;;;;523073;28;1402;-68
2023/01/18 11:25:16;;;;;;;14.02;12.32;;;;;;;;;;522589;28;1114;-68
2023/01/18 11:25:41;;;;;;;16.33;13.20;;;;;;;;;;523176;28;998;-68
2023/01/18 11:26:13;;;;;;;15.23;12.85;;;;;;;;;;523201;28;992;-69
2023/01/18 11:26:29;;;;;;;15.88;13.23;;;;;;;;;;529164;27;970;-68
2023/01/18 11:27:20;;;;;;;15.10;12.50;;;;;;;;;;528966;27;1297;-69
2023/01/18 11:27:35;;;;;;;15.55;13.20;;;;;;;;;;518199;28;1322;-69
2023/01/18 11:27:51;;;;;;;13.93;12.43;;;;;;;;;;519000;28;1504;-69
2023/01/18 11:28:19;;;;;;;13.38;11.52;;;;;;;;;;529876;27;1200;-69
2023/01/18 11:28:43;;;;;;;15.77;12.88;;;;;;;;;;529939;27;1100;-68
2023/01/18 11:29:04;;;;;;;14.20;12.55;;;;;;;;;;529840;27;1190;-68
2023/01/18 11:29:22;;;;;;;14.32;12.50;;;;;;;;;;529103;27;1053;-68
2023/01/18 11:29:42;;;;;;;14.73;13.15;;;;;;;;;;527229;27;1481;-68
2023/01/18 11:29:58;;;;;;;15.27;13.68;;;;;;;;;;526454;27;1275;-69
2023/01/18 11:30:23;;;;;;;16.90;14.93;;;;;;;;;;526867;27;1275;-68
2023/01/18 11:30:50;;;;;;;16.52;14.45;;;;;;;;;;526269;27;1280;-68
2023/01/18 11:31:12;;;;;;;16.13;13.90;;;;;;;;;;526465;27;1066;-68
2023/01/18 11:31:42;;;;;;;15.02;13.07;;;;;;;;;;525635;27;1431;-69
2023/01/18 11:32:16;;;;;;;13.88;12.38;;;;;;;;;;525807;28;1097;-68
2023/01/18 11:32:32;;;;;;;12.70;11.40;;;;;;;;;;523805;28;1339;-68
2023/01/18 11:32:49;;;;;;;13.82;12.27;;;;;;;;;;522376;28;1197;-68
2023/01/18 11:33:04;;;;;;;14.98;13.05;;;;;;;;;;521164;28;1211;-68
2023/01/18 11:33:22;;;;;;;15.40;13.00;;;;;;;;;;522533;28;1211;-68
2023/01/18 11:34:00;;;;;;;15.27;12.60;;;;;;;;;;522422;28;1123;-69
2023/01/18 11:34:26;;;;;;;15.32;12.70;;;;;;;;;;522369;28;1007;-69
2023/01/18 11:34:45;;;;;;;15.68;13.20;;;;;;;;;;524332;28;1003;-69
2023/01/18 11:35:06;;;;;;;14.98;12.43;;;;;;;;;;521902;28;1420;-69
2023/01/18 11:35:33;;;;;;;13.50;12.10;;;;;;;;;;522909;28;1137;-68
2023/01/18 11:36:07;;;;;;;14.15;12.75;;;;;;;;;;523103;28;1184;-69
2023/01/18 11:36:35;;;;;;;13.52;12.07;;;;;;;;;;525066;28;1117;-68
2023/01/18 11:36:50;;;;;;;13.30;11.90;;;;;;;;;;527803;27;1418;-69
2023/01/18 11:37:24;;;;;;;13.45;11.85;;;;;;;;;;530529;27;1022;-69
2023/01/18 11:37:42;;;;;;;12.77;11.05;;;;;;;;;;527100;27;1224;-68
2023/01/18 11:37:59;;;;;;;14.13;12.07;;;;;;;;;;527132;27;1152;-69
2023/01/18 11:38:17;;;;;;;14.52;12.60;;;;;;;;;;527534;27;1196;-69
2023/01/18 11:38:33;;;;;;;14.70;12.65;;;;;;;;;;527444;27;1039;-69
2023/01/18 11:38:49;;;;;;;15.23;12.80;;;;;;;;;;527396;27;1173;-70
2023/01/18 11:39:26;;;;;;;15.13;13.15;;;;;;;;;;527823;27;1056;-69
2023/01/18 11:39:42;;;;;;;14.68;12.43;;;;;;;;;;530007;27;1018;-69
2023/01/18 11:39:57;;;;;;;14.65;12.65;;;;;;;;;;525989;27;1555;-70
2023/01/18 11:40:26;;;;;;;13.27;11.90;;;;;;;;;;528037;27;998;-69
2023/01/18 11:40:42;;;;;;;13.07;11.63;;;;;;;;;;528348;27;1093;-69
2023/01/18 11:41:02;;;;;;;14.68;11.85;;;;;;;;;;527942;27;890;-69
2023/01/18 11:41:19;;;;;;;17.00;12.50;;;;;;;;;;527859;27;1975;-69
2023/01/18 11:41:35;;;;;;;14.63;12.57;;;;;;;;;;527807;27;1411;-69
2023/01/18 11:41:51;;;;;;;13.73;12.32;;;;;;;;;;527442;27;1124;-69
2023/01/18 11:42:29;;;;;;;13.02;11.73;;;;;;;;;;526999;27;1362;-69
2023/01/18 11:42:45;;;;;;;12.52;11.23;;;;;;;;;;525697;28;1414;-70
2023/01/18 11:43:12;;;;;;;13.10;11.77;;;;;;;;;;523839;28;1414;-69
2023/01/18 11:43:30;;;;;;;13.02;11.68;;;;;;;;;;523611;28;1145;-69
2023/01/18 11:44:02;;;;;;;14.35;12.45;;;;;;;;;;522773;28;1389;-69
2023/01/18 11:44:22;;;;;;;13.32;11.93;;;;;;;;;;522661;28;1435;-69
2023/01/18 11:44:43;;;;;;;14.13;12.30;;;;;;;;;;524937;28;987;-69
2023/01/18 11:45:27;;;;;;;14.35;12.65;;;;;;;;;;524319;28;1472;-69
2023/01/18 11:45:48;;;;;;;14.00;12.50;;;;;;;;;;524196;28;1576;-68
2023/01/18 11:46:27;;;;;;;14.35;12.85;;;;;;;;;;523772;28;1462;-69
2023/01/18 11:46:46;;;;;;;16.45;13.57;;;;;;;;;;521532;28;1070;-68
2023/01/18 11:47:09;;;;;;;14.43;12.93;;;;;;;;;;523481;28;1243;-69
2023/01/18 11:47:36;;;;;;;15.82;13.45;;;;;;;;;;524185;28;959;-68
2023/01/18 11:47:54;;;;;;;17.20;13.80;;;;;;;;;;524167;28;1007;-69
2023/01/18 11:48:16;;;;;;;19.27;14.48;;;;;;;;;;525631;28;1278;-69
2023/01/18 11:48:47;;;;;;;17.40;14.35;;;;;;;;;;526661;27;1140;-69
2023/01/18 11:49:08;;;;;;;16.80;14.68;;;;;;;;;;526904;27;1129;-69
2023/01/18 11:49:46;;;;;;;16.65;14.80;;;;;;;;;;527162;27;1133;-69
2023/01/18 11:50:27;;;;;;;17.70;14.50;;;;;;;;;;526275;27;2352;-69
2023/01/18 11:50:48;;;;;;;17.58;14.98;;;;;;;;;;526714;27;1803;-69
2023/01/18 11:51:16;;;;;;;18.63;15.27;;;;;;;;;;524346;28;1231;-70
2023/01/18 11:51:38;;;;;;;19.05;15.38;;;;;;;;;;524903;28;907;-68
2023/01/18 11:52:00;;;;;;;18.20;14.93;;;;;;;;;;523838;28;1280;-68
2023/01/18 11:52:41;;;;;;;16.88;14.65;;;;;;;;;;524901;28;1086;-69
2023/01/18 11:53:18;;;;;;;18.27;15.07;;;;;;;;;;526811;27;1427;-69
2023/01/18 11:53:53;;;;;;;18.55;15.77;;;;;;;;;;527468;27;1080;-69
2023/01/18 11:54:27;;;;;;;19.33;15.38;;;;;;;;;;527339;27;1248;-69
2023/01/18 11:54:48;;;;;;;18.50;15.32;;;;;;;;;;527775;27;1153;-68
2023/01/18 11:55:16;;;;;;;17.85;14.82;;;;;;;;;;526898;27;1160;-68
2023/01/18 11:55:46;;;;;;;16.70;14.63;;;;;;;;;;529098;27;1070;-69
2023/01/18 11:56:11;;;;;;;14.85;13.25;;;;;;;;;;528981;27;1120;-68
2023/01/18 11:56:34;;;;;;;14.48;12.90;;;;;;;;;;530337;27;1148;-69
2023/01/18 11:56:54;;;;;;;15.82;13.90;;;;;;;;;;528973;27;1221;-70
2023/01/18 11:57:11;;;;;;;16.25;14.13;;;;;;;;;;529756;27;1020;-69
2023/01/18 11:57:27;;;;;;;16.58;14.13;;;;;;;;;;530512;27;1104;-69
2023/01/18 11:57:42;;;;;;;17.15;14.57;;;;;;;;;;527476;27;1533;-69
2023/01/18 11:57:58;;;;;;;17.23;14.70;;;;;;;;;;524890;27;1384;-69
2023/01/18 11:58:25;;;;;;;17.90;15.00;;;;;;;;;;526100;28;1456;-69
2023/01/18 11:58:40;;;;;;;16.65;14.25;;;;;;;;;;524708;28;1432;-70
2023/01/18 11:58:56;;;;;;;15.70;14.00;;;;;;;;;;525547;28;1018;-70
2023/01/18 11:59:26;;;;;;;16.13;13.90;;;;;;;;;;525887;28;1109;-70
2023/01/18 11:59:44;;;;;;;16.73;14.43;;;;;;;;;;523095;28;1511;-69
2023/01/18 12:00:00;;;;;;;15.95;14.23;;;;;;;;;;525476;28;1089;-69
2023/01/18 12:00:15;;;;;;;16.73;14.00;;;;;;;;;;524414;28;1101;-69
2023/01/18 12:00:44;;;;;;;16.92;13.93;;;;;;;;;;523414;27;1169;-69
2023/01/18 12:01:45;;;;;;;16.23;14.52;;;;;;;;;;525114;28;1211;-69
2023/01/18 12:02:19;;;;;;;15.60;13.80;;;;;;;;;;517935;28;1275;-69
2023/01/18 12:03:07;;;;;;;15.95;13.48;;;;;;;;;;525030;28;1513;-69
2023/01/18 12:03:46;;;;;;;16.85;14.30;;;;;;;;;;519615;28;1284;-69
2023/01/18 12:04:05;;;;;;;17.25;14.75;;;;;;;;;;521497;28;1182;-69
2023/01/18 12:05:05;;;;;;;17.13;14.18;;;;;;;;;;522544;28;1151;-69
2023/01/18 12:05:28;;;;;;;15.88;13.85;;;;;;;;;;522389;28;1472;-69
2023/01/18 12:05:53;;;;;;;16.98;14.52;;;;;;;;;;523306;28;1175;-69
2023/01/18 12:06:21;;;;;;;18.42;15.35;;;;;;;;;;525748;28;1374;-69
2023/01/18 12:07:14;;;;;;;17.10;14.20;;;;;;;;;;524123;28;1451;-69
2023/01/18 12:07:36;;;;;;;18.25;15.02;;;;;;;;;;524704;28;1109;-68
2023/01/18 12:07:52;;;;;;;16.40;14.50;;;;;;;;;;522498;28;1400;-69
2023/01/18 12:08:37;;;;;;;16.00;14.30;;;;;;;;;;520768;28;1424;-69
2023/01/18 12:09:13;;;;;;;16.77;14.45;;;;;;;;;;523853;28;2094;-68
2023/01/18 12:09:33;;;;;;;16.17;13.82;;;;;;;;;;524040;28;1126;-68
2023/01/18 12:09:54;;;;;;;15.73;13.75;;;;;;;;;;525901;27;1265;-69
2023/01/18 12:10:19;;;;;;;15.48;13.38;;;;;;;;;;529101;27;1109;-69
2023/01/18 12:10:56;;;;;;;15.20;13.60;;;;;;;;;;526992;27;1261;-68
2023/01/18 12:11:55;;;;;;;18.38;14.60;;;;;;;;;;527134;27;1369;-68
2023/01/18 12:12:52;;;;;;;16.20;14.50;;;;;;;;;;517200;28;1784;-69
2023/01/18 12:13:34;;;;;;;15.63;13.77;;;;;;;;;;518672;28;1277;-69
2023/01/18 12:13:59;;;;;;;15.23;13.55;;;;;;;;;;517049;28;1271;-69
2023/01/18 12:14:37;;;;;;;16.05;13.98;;;;;;;;;;517039;28;1000;-69
2023/01/18 12:14:53;;;;;;;17.88;14.23;;;;;;;;;;518977;28;1114;-69
2023/01/18 12:15:41;;;;;;;17.70;13.87;;;;;;;;;;515564;28;1389;-69
2023/01/18 12:16:18;;;;;;;16.13;13.57;;;;;;;;;;519397;28;1184;-69
2023/01/18 12:16:49;;;;;;;15.23;13.63;;;;;;;;;;521615;28;1143;-69
2023/01/18 12:17:23;;;;;;;14.45;12.80;;;;;;;;;;522678;28;1138;-69
2023/01/18 12:17:55;;;;;;;16.67;14.52;;;;;;;;;;520292;28;1382;-69
2023/01/18 12:18:37;;;;;;;16.33;13.77;;;;;;;;;;521465;28;1015;-70
2023/01/18 12:18:56;;;;;;;14.63;13.02;;;;;;;;;;521311;28;1083;-70
2023/01/18 12:19:30;;;;;;;17.17;13.98;;;;;;;;;;519446;28;1104;-69
2023/01/18 12:20:00;;;;;;;16.20;13.90;;;;;;;;;;519174;28;1066;-69
2023/01/18 12:20:48;;;;;;;15.38;13.77;;;;;;;;;;518385;28;1062;-69
2023/01/18 12:21:06;;;;;;;17.25;14.57;;;;;;;;;;517853;28;1177;-70
2023/01/18 12:21:33;;;;;;;15.18;13.45;;;;;;;;;;519437;28;1935;-69
2023/01/18 12:22:26;;;;;;;17.33;14.35;;;;;;;;;;518194;28;1122;-69
2023/01/18 12:22:59;;;;;;;15.70;13.43;;;;;;;;;;520113;28;1110;-70
2023/01/18 12:23:22;;;;;;;15.48;12.57;;;;;;;;;;518400;28;1010;-70
2023/01/18 12:23:41;;;;;;;16.27;13.82;;;;;;;;;;519851;28;1102;-70
2023/01/18 12:24:14;;;;;;;17.00;14.30;;;;;;;;;;521371;28;1122;-70
2023/01/18 12:24:42;;;;;;;15.45;13.45;;;;;;;;;;522460;28;1296;-70
2023/01/18 12:25:25;;;;;;;16.58;13.68;;;;;;;;;;520545;28;1432;-69
2023/01/18 12:25:52;;;;;;;15.10;12.95;;;;;;;;;;519284;28;1074;-70
2023/01/18 12:26:19;;;;;;;18.92;14.80;;;;;;;;;;519374;28;1166;-69
2023/01/18 12:26:37;;;;;;;17.73;14.10;;;;;;;;;;518164;28;1253;-69
2023/01/18 12:26:56;;;;;;;18.30;14.43;;;;;;;;;;518925;28;1423;-69
2023/01/18 12:27:28;;;;;;;17.85;14.07;;;;;;;;;;516408;28;1363;-68
2023/01/18 12:27:58;;;;;;;18.50;13.88;;;;;;;;;;519215;28;1405;-70
2023/01/18 12:28:34;;;;;;;17.63;14.32;;;;;;;;;;517699;28;1229;-69
2023/01/18 12:29:08;;;;;;;16.48;13.70;;;;;;;;;;513361;28;1267;-69
2023/01/18 12:29:57;;;;;;;15.13;13.43;;;;;;;;;;517995;28;1088;-70
2023/01/18 12:30:15;;;;;;;14.70;13.10;;;;;;;;;;518627;28;1445;-69
2023/01/18 12:30:53;;;;;;;14.57;12.45;;;;;;;;;;516942;28;1463;-69
2023/01/18 12:31:43;;;;;;;15.00;13.18;;;;;;;;;;518882;28;1289;-68
2023/01/18 12:32:13;;;;;;;14.82;13.00;;;;;;;;;;519649;28;1440;-68
2023/01/18 12:32:40;;;;;;;14.80;13.25;;;;;;;;;;519080;28;1015;-69
2023/01/18 12:33:03;;;;;;;15.55;13.32;;;;;;;;;;518549;28;1209;-69
2023/01/18 12:33:37;;;;;;;15.48;13.45;;;;;;;;;;521578;28;1188;-70
2023/01/18 12:34:06;;;;;;;15.07;13.20;;;;;;;;;;519101;28;1246;-69
2023/01/18 12:34:29;;;;;;;16.85;13.48;;;;;;;;;;519025;28;1118;-69
2023/01/18 12:35:14;;;;;;;17.60;13.77;;;;;;;;;;517628;28;1190;-69
2023/01/18 12:35:41;;;;;;;15.55;13.55;;;;;;;;;;519098;28;1388;-70
2023/01/18 12:36:34;;;;;;;14.73;12.90;;;;;;;;;;521119;28;951;-69
2023/01/18 12:36:52;;;;;;;15.63;13.43;;;;;;;;;;518307;28;1158;-69
2023/01/18 12:37:30;;;;;;;15.02;12.70;;;;;;;;;;520811;28;1471;-70
2023/01/18 12:37:53;;;;;;;14.55;12.50;;;;;;;;;;521698;28;1009;-70
2023/01/18 12:38:21;;;;;;;15.52;12.70;;;;;;;;;;520924;28;1884;-69
2023/01/18 12:38:44;;;;;;;16.05;12.95;;;;;;;;;;521807;28;1100;-70
2023/01/18 12:39:14;;;;;;;15.32;13.10;;;;;;;;;;521601;28;1103;-70
2023/01/18 12:40:00;;;;;;;16.30;13.35;;;;;;;;;;519574;28;1174;-69
2023/01/18 12:40:23;;;;;;;15.38;12.85;;;;;;;;;;522546;28;2081;-69
2023/01/18 12:40:50;;;;;;;15.50;12.73;;;;;;;;;;522691;28;1128;-70
2023/01/18 12:41:30;;;;;;;14.95;12.70;;;;;;;;;;521198;28;1148;-69
2023/01/18 12:41:58;;;;;;;15.50;13.18;;;;;;;;;;520622;28;1098;-69
2023/01/18 12:42:26;;;;;;;18.75;13.90;;;;;;;;;;520194;28;1052;-69
2023/01/18 12:42:48;;;;;;;15.10;13.13;;;;;;;;;;520398;28;1297;-69
2023/01/18 12:43:09;;;;;;;14.73;12.55;;;;;;;;;;520401;28;1019;-69
2023/01/18 12:43:49;;;;;;;15.98;13.07;;;;;;;;;;522684;28;990;-69
2023/01/18 12:44:10;;;;;;;15.43;13.80;;;;;;;;;;521793;28;1189;-69
2023/01/18 12:44:50;;;;;;;15.40;13.80;;;;;;;;;;521563;28;1521;-70
2023/01/18 12:45:25;;;;;;;15.73;13.40;;;;;;;;;;521898;28;1053;-69
2023/01/18 12:46:06;;;;;;;13.70;12.30;;;;;;;;;;520328;28;1085;-69
2023/01/18 12:46:23;;;;;;;15.68;12.90;;;;;;;;;;513600;28;969;-70
2023/01/18 12:46:54;;;;;;;16.13;12.90;;;;;;;;;;521654;28;1281;-69
2023/01/18 12:47:19;;;;;;;16.88;13.45;;;;;;;;;;521266;28;1468;-69
2023/01/18 12:47:38;;;;;;;16.17;13.70;;;;;;;;;;523035;28;1985;-70
2023/01/18 12:48:19;;;;;;;15.63;13.45;;;;;;;;;;521250;28;1779;-70
2023/01/18 12:48:47;;;;;;;16.38;13.55;;;;;;;;;;522661;28;1408;-70
2023/01/18 12:49:17;;;;;;;15.55;13.85;;;;;;;;;;519975;28;1400;-69
2023/01/18 12:49:42;;;;;;;17.58;14.10;;;;;;;;;;519912;28;1664;-69
2023/01/18 12:49:59;;;;;;;17.95;14.00;;;;;;;;;;521076;28;1325;-71
2023/01/18 12:50:23;;;;;;;16.80;13.32;;;;;;;;;;521231;28;1000;-70
2023/01/18 12:50:39;;;;;;;15.48;13.73;;;;;;;;;;523741;28;1118;-70
2023/01/18 12:50:56;;;;;;;15.25;13.63;;;;;;;;;;522430;28;1517;-70
2023/01/18 12:51:19;;;;;;;14.60;12.85;;;;;;;;;;522899;28;1090;-71
2023/01/18 12:51:37;;;;;;;15.35;13.13;;;;;;;;;;524187;28;1261;-70
2023/01/18 12:51:58;;;;;;;15.90;13.55;;;;;;;;;;524502;28;1494;-69
2023/01/18 12:52:17;;;;;;;17.88;12.80;;;;;;;;;;525321;28;1121;-70
2023/01/18 12:52:41;;;;;;;15.77;11.52;;;;;;;;;;525283;28;1023;-70
2023/01/18 12:53:02;;;;;;;13.23;10.18;;;;;;;;;;528291;27;1097;-70
2023/01/18 12:53:34;;;;;;;12.07;9.90;;;;;;;;;;526653;27;1213;-70
2023/01/18 12:53:54;;;;;;;14.43;12.80;;;;;;;;;;527335;27;1040;-70
2023/01/18 12:54:31;;;;;;;15.40;12.93;;;;;;;;;;526064;28;1288;-70
2023/01/18 12:54:58;;;;;;;13.40;12.00;;;;;;;;;;524282;28;1113;-70
2023/01/18 12:55:20;;;;;;;16.88;13.50;;;;;;;;;;524824;28;1274;-70
2023/01/18 12:55:38;;;;;;;15.80;13.15;;;;;;;;;;523680;28;1140;-70
2023/01/18 12:55:54;;;;;;;16.80;13.48;;;;;;;;;;523296;28;1973;-70
2023/01/18 12:56:22;;;;;;;15.43;13.00;;;;;;;;;;523254;28;1436;-70
2023/01/18 12:56:41;;;;;;;14.95;12.40;;;;;;;;;;523676;28;1225;-70